Butler, Georgia
Current Conditions -  °F | °C
As of 9:55 PM on Monday 22 Dec 2014 (Local Time) from KOPN Reporting Station
Haze Haze  
Wind Chill: 42°   Ceiling: 200
Heat Index: 46°   Visibility: 1mi
Dew Point: 46°   Wind: 8mph
Humidity: 100%   Direction: 110°ESE
Pressure: 29.93"   Gusts: NA
Location:  32.56°N, 84.24°W
Report Text: KOPN 230255Z AUTO 11007KT 1SM BR OVC002 08/08 A2993 RMK AO2 LTG DSNT SW
Loading
Personal Weather Stations






























Interactive Weather Map New forecast layout! Learn more

10-Day Weather Forecast

Advertisements
Track Severe Weather on mobile